This is the latest recevied weather packets stored in our database for station/object K4CRS-13. If no packets are shown the sender has not sent any weather packets the latest 10 day(s).
| Time | Temp. | Humidity | Pressure | Rain* | Wind** | Luminosity | Snow |
|---|---|---|---|---|---|---|---|
| 1788113317 | 34.44° C | 56% | 1055 hPa | 0 mm | - | 870 W/m² | - |
| 1788113016 | 33.33° C | 57% | 1055 hPa | 0 mm | - | 872 W/m² | - |
| 1788112716 | 32.78° C | 61% | 1055.3 hPa | 0 mm | - | 843 W/m² | - |
| 1788112410 | 32.78° C | 61% | 1055.3 hPa | 0 mm | - | 762 W/m² | - |
| 1788112106 | 33.33° C | 59% | 1055 hPa | 0 mm | - | 180 W/m² | - |
| 1788111801 | 32.78° C | 59% | 1055.3 hPa | 0 mm | - | 900 W/m² | - |
| 1788111501 | 33.33° C | 61% | 1055.1 hPa | 0 mm | - | 183 W/m² | - |
| 1788111197 | 34.44° C | 58% | 1055.3 hPa | 0 mm | - | 479 W/m² | - |
| 1788110893 | 32.78° C | 58% | 1055.4 hPa | 0 mm | - | 875 W/m² | - |
| 1788110589 | 32.78° C | 62% | 1055.5 hPa | 0 mm | - | 842 W/m² | - |
| 1788110285 | 33.33° C | 61% | 1055.5 hPa | 0 mm | - | 167 W/m² | - |
| 1788109980 | 33.33° C | 61% | 1055.3 hPa | 0 mm | - | 749 W/m² | - |
| 1788109674 | 32.22° C | 64% | 1055.7 hPa | 0 mm | - | 796 W/m² | - |
| 1788109374 | 32.78° C | 64% | 1055.7 hPa | 0 mm | - | 843 W/m² | - |
| 1788109073 | 33.33° C | 61% | 1056 hPa | 0 mm | - | 709 W/m² | - |
| 1788108769 | 33.33° C | 64% | 1055.7 hPa | 0 mm | - | 837 W/m² | - |
| 1788108465 | 32.78° C | 64% | 1055.7 hPa | 0 mm | - | 848 W/m² | - |
| 1788108161 | 32.22° C | 65% | 1055.7 hPa | 0 mm | - | 577 W/m² | - |
| 1788107857 | 32.78° C | 65% | 1055.6 hPa | 0 mm | - | 756 W/m² | - |
| 1788107553 | 32.22° C | 65% | 1055.7 hPa | 0 mm | - | 209 W/m² | - |
| 1788107247 | 31.67° C | 66% | 1056 hPa | 0 mm | - | 337 W/m² | - |
| 1788106944 | 32.78° C | 65% | 1056 hPa | 0 mm | - | 260 W/m² | - |
| 1788106639 | 32.78° C | 63% | 1056 hPa | 0 mm | - | 477 W/m² | - |
| 1788106333 | 31.67° C | 68% | 1055.9 hPa | 0 mm | - | 811 W/m² | - |
| 1788106029 | 31.67° C | 68% | 1055.8 hPa | 0 mm | - | 241 W/m² | - |
* Rain latest hour (hover to see other rain measurements)
** Current wind speed in m/s (hover to see current wind gust speed)